< < Back
Terminal Aerodrome Forecast


Current Version              Previous Versions:   1  2  3  4  5  6  7  8  9  

Terminal Aerodrome Forecast

423
FTUS44 KMRX 201720
TAFTYS
TAF
KTYS 201720Z 2018/2118 01005KT P6SM OVC025
     FM202100 01005KT P6SM BKN035
     FM210000 00000KT P6SM SCT035
     FM210900 00000KT 3SM BR SCT002
     FM211400 04005KT P6SM SCT035=

Latest METAR

898
SAUS80 KWBC 201900 RRB
MTRTYS
METAR KTYS 201853Z 00000KT 10SM OVC019 06/01 A3019 RMK AO2 SLP225
T00560006


USA.gov is the U.S. government's official web portal to all federal, state and local government web resources and services.